createdAt,value
2019-01-11T00:02:00.979Z,4.77
2019-01-11T00:04:28.810Z,6.27
2019-01-11T00:06:56.586Z,4.20
2019-01-11T00:09:24.418Z,5.93
2019-01-11T00:11:52.173Z,4.17
2019-01-11T00:14:19.970Z,3.23
2019-01-11T00:16:47.778Z,4.17
2019-01-11T00:19:15.599Z,5.60
2019-01-11T00:21:43.404Z,3.70
2019-01-11T00:24:11.265Z,6.43
2019-01-11T00:26:39.048Z,7.37
2019-01-11T00:29:06.911Z,5.07
2019-01-11T00:31:34.689Z,4.07
2019-01-11T00:34:02.623Z,3.67
2019-01-11T00:36:30.421Z,5.80
2019-01-11T00:38:59.563Z,7.37
2019-01-11T00:41:27.604Z,5.00
2019-01-11T00:43:55.409Z,4.77
2019-01-11T00:46:23.229Z,3.93
2019-01-11T00:48:51.822Z,4.20
2019-01-11T00:51:19.890Z,5.83
2019-01-11T00:53:47.687Z,3.97
2019-01-11T00:56:20.552Z,3.10
2019-01-11T00:58:48.372Z,4.07
2019-01-11T01:01:16.204Z,2.80
2019-01-11T01:03:43.991Z,2.70
2019-01-11T01:06:12.036Z,7.63
2019-01-11T01:08:39.802Z,3.77
2019-01-11T01:11:07.601Z,2.93
2019-01-11T01:13:35.450Z,4.93
2019-01-11T01:16:03.760Z,3.03
2019-01-11T01:18:31.674Z,5.67
2019-01-11T01:20:59.438Z,5.23
2019-01-11T01:23:27.246Z,6.70
2019-01-11T01:25:55.019Z,5.47
2019-01-11T01:28:27.992Z,5.50
2019-01-11T01:30:55.764Z,5.97
2019-01-11T01:33:23.555Z,7.23
2019-01-11T01:35:51.346Z,5.93
2019-01-11T01:38:24.226Z,5.43
2019-01-11T01:40:52.090Z,5.20
2019-01-11T01:43:19.926Z,4.97
2019-01-11T01:45:47.710Z,3.90
2019-01-11T01:48:20.516Z,3.53
2019-01-11T01:50:48.350Z,3.93
2019-01-11T01:53:16.117Z,4.43
2019-01-11T01:55:43.943Z,4.63
2019-01-11T01:58:11.815Z,4.43
2019-01-11T02:00:39.729Z,3.10
2019-01-11T02:03:07.497Z,5.03
2019-01-11T02:05:35.283Z,4.47
2019-01-11T02:08:03.494Z,3.67
2019-01-11T02:10:31.284Z,5.67
2019-01-11T02:12:59.040Z,4.60
2019-01-11T02:15:26.830Z,3.37
2019-01-11T02:18:25.082Z,4.10
2019-01-11T02:20:52.912Z,3.80
2019-01-11T02:23:20.676Z,6.47
2019-01-11T02:25:48.466Z,3.23
2019-01-11T02:28:16.372Z,3.70
2019-01-11T02:30:44.147Z,4.33
2019-01-11T02:33:11.915Z,2.93
2019-01-11T02:35:39.715Z,3.27
2019-01-11T02:38:07.524Z,4.23
2019-01-11T02:40:35.358Z,3.37
2019-01-11T02:43:03.137Z,3.07
2019-01-11T02:45:30.901Z,2.50
2019-01-11T02:47:58.700Z,2.80
2019-01-11T02:50:26.467Z,6.97
2019-01-11T02:52:54.289Z,2.77
2019-01-11T02:55:22.070Z,3.83
2019-01-11T02:57:49.862Z,3.13
2019-01-11T03:00:19.516Z,4.00
2019-01-11T03:02:47.707Z,4.73
2019-01-11T03:05:16.866Z,3.17
2019-01-11T03:08:04.374Z,4.43
2019-01-11T03:10:32.200Z,6.37
2019-01-11T03:12:59.976Z,3.97
2019-01-11T03:15:27.888Z,7.50
2019-01-11T03:17:55.914Z,5.30
2019-01-11T03:20:23.722Z,4.50
2019-01-11T03:22:51.504Z,4.80
2019-01-11T03:25:19.328Z,4.93
2019-01-11T03:27:52.277Z,5.93
2019-01-11T03:30:20.572Z,4.67
2019-01-11T03:32:48.683Z,7.17
2019-01-11T03:35:18.384Z,4.80
2019-01-11T03:37:56.244Z,5.60
2019-01-11T03:40:25.641Z,5.87
2019-01-11T03:42:53.657Z,3.67
2019-01-11T03:45:24.106Z,8.60
2019-01-11T03:48:16.548Z,4.07
2019-01-11T03:50:44.392Z,5.60
2019-01-11T03:53:12.187Z,10.77
2019-01-11T03:55:40.018Z,8.10
2019-01-11T03:58:32.444Z,6.87
2019-01-11T04:01:00.275Z,8.83
2019-01-11T04:03:28.052Z,4.70
2019-01-11T04:05:55.885Z,11.13
2019-01-11T04:08:23.664Z,11.27
2019-01-11T04:10:52.016Z,7.27
2019-01-11T04:13:19.919Z,25.17
2019-01-11T04:15:47.644Z,9.60
2019-01-11T04:18:32.483Z,23.30
2019-01-11T04:21:00.372Z,12.07
2019-01-11T04:23:28.202Z,25.50
2019-01-11T04:25:56.183Z,17.10
2019-01-11T04:28:24.032Z,28.10
2019-01-11T04:30:51.849Z,8.80
2019-01-11T04:33:42.031Z,4.73
2019-01-11T04:36:09.863Z,5.20
2019-01-11T04:38:37.649Z,6.53
2019-01-11T04:41:05.579Z,7.13
2019-01-11T04:43:33.343Z,8.20
2019-01-11T04:46:01.194Z,7.30
2019-01-11T04:48:29.867Z,7.43
2019-01-11T04:50:57.679Z,4.83
2019-01-11T04:53:25.510Z,6.07
2019-01-11T04:55:53.268Z,6.10
2019-01-11T04:58:21.068Z,6.43
2019-01-11T05:00:48.909Z,7.70
2019-01-11T05:03:16.698Z,6.20
2019-01-11T05:05:44.563Z,10.53
2019-01-11T05:08:12.479Z,5.37
2019-01-11T05:10:40.307Z,5.97
2019-01-11T05:13:25.930Z,9.00
2019-01-11T05:15:53.722Z,6.17
2019-01-11T05:18:21.500Z,7.90
2019-01-11T05:20:49.322Z,7.90
2019-01-11T05:23:17.136Z,7.70
2019-01-11T05:25:44.976Z,8.53
2019-01-11T05:28:13.539Z,7.27
2019-01-11T05:30:41.404Z,5.13
2019-01-11T05:33:09.145Z,9.43
2019-01-11T05:35:36.933Z,7.70
2019-01-11T05:38:04.743Z,7.50
2019-01-11T05:40:32.527Z,10.20
2019-01-11T05:43:00.283Z,8.33
2019-01-11T05:45:28.093Z,8.73
2019-01-11T05:47:55.932Z,8.43
2019-01-11T05:50:24.492Z,7.73
2019-01-11T05:52:52.366Z,9.13
2019-01-11T05:55:39.939Z,12.20
2019-01-11T05:58:30.061Z,8.97
2019-01-11T06:00:58.071Z,10.03
2019-01-11T06:03:29.085Z,10.20
2019-01-11T06:05:59.953Z,7.13
2019-01-11T06:08:31.386Z,8.83
2019-01-11T06:10:59.125Z,8.80
2019-01-11T06:13:26.963Z,7.13
2019-01-11T06:15:54.933Z,7.00
2019-01-11T06:18:22.757Z,11.40
2019-01-11T06:20:50.737Z,6.53
2019-01-11T06:23:18.521Z,10.73
2019-01-11T06:25:46.340Z,11.20
2019-01-11T06:28:14.139Z,11.90
2019-01-11T06:30:42.043Z,11.13
2019-01-11T06:33:09.885Z,13.37
2019-01-11T06:35:38.335Z,11.17
2019-01-11T06:38:06.192Z,6.50
2019-01-11T06:40:33.996Z,11.77
2019-01-11T06:43:03.692Z,9.23
2019-01-11T06:45:31.596Z,41.10
2019-01-11T06:47:59.596Z,11.77
2019-01-11T06:50:27.391Z,7.80
2019-01-11T06:52:55.536Z,12.83
2019-01-11T06:55:23.403Z,15.93
2019-01-11T06:57:51.187Z,9.17
2019-01-11T07:00:18.956Z,14.10
2019-01-11T07:02:46.881Z,12.80
2019-01-11T07:05:14.677Z,12.03
2019-01-11T07:07:42.537Z,11.07
2019-01-11T07:10:16.571Z,8.63
2019-01-11T07:12:44.399Z,8.60
2019-01-11T07:15:12.278Z,11.03
2019-01-11T07:17:40.102Z,11.30
2019-01-11T07:20:09.258Z,8.70
2019-01-11T07:22:37.113Z,10.60
2019-01-11T07:25:05.276Z,9.60
2019-01-11T07:27:37.916Z,10.03
2019-01-11T07:30:06.775Z,10.33
2019-01-11T07:32:34.553Z,13.83
2019-01-11T07:35:02.561Z,16.73
2019-01-11T07:37:30.386Z,10.40
2019-01-11T07:39:58.147Z,12.50
2019-01-11T07:42:25.987Z,13.07
2019-01-11T07:44:53.760Z,14.30
2019-01-11T07:47:26.649Z,12.53
2019-01-11T07:49:54.432Z,15.60
2019-01-11T07:52:22.251Z,12.57
2019-01-11T07:54:50.010Z,16.00
2019-01-11T07:57:17.867Z,13.20
2019-01-11T07:59:45.669Z,13.20
2019-01-11T08:02:13.602Z,16.27
2019-01-11T08:04:41.346Z,19.57
2019-01-11T08:07:09.198Z,12.20
2019-01-11T08:09:37.080Z,14.27
2019-01-11T08:12:04.934Z,17.20
2019-01-11T08:14:32.709Z,13.00
2019-01-11T08:17:00.540Z,13.73
2019-01-11T08:19:28.469Z,14.80
2019-01-11T08:21:56.247Z,16.33
2019-01-11T08:24:24.046Z,14.47
2019-01-11T08:26:52.667Z,12.93
2019-01-11T08:29:20.489Z,14.23
2019-01-11T08:31:48.213Z,19.00
2019-01-11T08:34:16.123Z,12.03
2019-01-11T08:36:43.993Z,12.30
2019-01-11T08:39:11.863Z,12.60
2019-01-11T08:41:39.622Z,11.73
2019-01-11T08:44:07.375Z,8.83
2019-01-11T08:46:35.228Z,11.23
2019-01-11T08:49:02.990Z,12.47
2019-01-11T08:51:30.799Z,11.63
2019-01-11T08:53:58.618Z,10.20
2019-01-11T08:56:26.410Z,11.87
2019-01-11T08:58:54.200Z,13.23
2019-01-11T09:01:22.059Z,13.23
2019-01-11T09:03:50.105Z,12.30
2019-01-11T09:06:18.000Z,13.93
2019-01-11T09:08:46.040Z,13.00
2019-01-11T09:11:13.811Z,13.57
2019-01-11T09:13:41.595Z,14.33
2019-01-11T09:16:09.396Z,16.10
2019-01-11T09:18:48.324Z,15.50
2019-01-11T09:21:16.206Z,14.33
2019-01-11T09:23:44.094Z,12.33
2019-01-11T09:26:12.025Z,14.07
2019-01-11T09:28:40.621Z,14.33
2019-01-11T09:31:08.936Z,18.30
2019-01-11T09:33:36.726Z,13.60
2019-01-11T09:36:04.603Z,13.17
2019-01-11T09:38:32.346Z,17.30
2019-01-11T09:41:00.323Z,14.10
2019-01-11T09:43:28.146Z,18.27
2019-01-11T09:45:57.318Z,16.00
2019-01-11T09:48:25.081Z,14.70
2019-01-11T09:50:52.935Z,13.90
2019-01-11T09:53:20.726Z,9.63
2019-01-11T09:55:48.536Z,13.63
2019-01-11T09:58:16.357Z,12.83
2019-01-11T10:00:44.268Z,12.23
2019-01-11T10:03:12.352Z,14.87
2019-01-11T10:05:41.256Z,9.90
2019-01-11T10:08:09.107Z,11.60
2019-01-11T10:10:36.965Z,12.70
2019-01-11T10:13:04.780Z,12.47
2019-01-11T10:15:32.797Z,9.90
2019-01-11T10:18:00.692Z,13.53
2019-01-11T10:20:28.474Z,12.00
2019-01-11T10:22:56.285Z,17.47
2019-01-11T10:25:24.138Z,12.03
2019-01-11T10:27:51.936Z,15.43
2019-01-11T10:30:21.530Z,15.07
2019-01-11T10:32:49.367Z,12.40
2019-01-11T10:35:17.279Z,14.13
2019-01-11T10:37:45.014Z,11.93
2019-01-11T10:40:14.538Z,14.83
2019-01-11T10:42:42.641Z,14.43
2019-01-11T10:45:17.665Z,12.50
2019-01-11T10:47:45.559Z,15.43
2019-01-11T10:50:15.549Z,12.13
2019-01-11T10:52:43.445Z,13.67
2019-01-11T10:55:12.426Z,15.60
2019-01-11T10:57:40.521Z,15.77
2019-01-11T11:00:24.637Z,14.60
2019-01-11T11:02:54.080Z,20.40
2019-01-11T11:05:22.059Z,13.53
2019-01-11T11:07:49.896Z,14.93
2019-01-11T11:10:17.823Z,15.17
2019-01-11T11:12:45.588Z,9.83
2019-01-11T11:15:14.586Z,18.80
2019-01-11T11:17:42.393Z,12.43
2019-01-11T11:20:12.878Z,15.70
2019-01-11T11:22:40.886Z,17.50
2019-01-11T11:25:11.187Z,16.70
2019-01-11T11:27:39.153Z,12.93
2019-01-11T11:30:09.469Z,16.03
2019-01-11T11:33:05.740Z,18.47
2019-01-11T11:35:33.521Z,15.67
2019-01-11T11:38:01.375Z,10.67
2019-01-11T11:40:32.202Z,16.90
2019-01-11T11:43:00.054Z,15.60
2019-01-11T11:45:28.525Z,8.47
2019-01-11T11:48:01.976Z,12.20
2019-01-11T11:50:30.343Z,12.03
2019-01-11T11:52:58.718Z,13.03
2019-01-11T11:55:27.128Z,15.27
2019-01-11T11:57:55.585Z,12.13
2019-01-11T12:00:26.482Z,13.60
2019-01-11T12:02:54.932Z,13.40
2019-01-11T12:05:23.389Z,12.70
2019-01-11T12:07:57.177Z,10.17
2019-01-11T12:10:25.488Z,10.20
2019-01-11T12:12:53.768Z,12.20
2019-01-11T12:15:22.068Z,11.83
2019-01-11T12:17:49.869Z,11.77
2019-01-11T12:20:40.709Z,12.40
2019-01-11T12:23:09.002Z,14.20
2019-01-11T12:25:39.387Z,14.50
2019-01-11T12:28:12.596Z,12.67
2019-01-11T12:30:40.926Z,10.77
2019-01-11T12:33:09.206Z,11.53
2019-01-11T12:35:37.472Z,14.33
2019-01-11T12:38:05.600Z,14.40
2019-01-11T12:40:34.068Z,12.93
2019-01-11T12:43:02.212Z,14.57
2019-01-11T12:45:30.469Z,18.40
2019-01-11T12:47:58.731Z,14.40
2019-01-11T12:50:27.739Z,12.37
2019-01-11T12:52:56.016Z,13.53
2019-01-11T12:55:24.423Z,12.13
2019-01-11T12:57:52.663Z,12.20
2019-01-11T13:00:21.126Z,12.67
2019-01-11T13:02:49.382Z,10.67
2019-01-11T13:05:19.765Z,9.53
2019-01-11T13:08:25.735Z,10.30
2019-01-11T13:10:54.107Z,14.10
2019-01-11T13:13:22.274Z,15.67
2019-01-11T13:15:50.591Z,10.80
2019-01-11T13:18:19.164Z,13.37
2019-01-11T13:20:47.500Z,9.90
2019-01-11T13:23:15.898Z,9.73
2019-01-11T13:25:44.287Z,13.57
2019-01-11T13:28:12.740Z,10.90
2019-01-11T13:30:41.382Z,11.73
2019-01-11T13:33:12.473Z,8.97
2019-01-11T13:36:00.450Z,11.30
2019-01-11T13:38:28.770Z,11.13
2019-01-11T13:40:56.994Z,15.87
2019-01-11T13:43:25.289Z,14.90
2019-01-11T13:45:53.918Z,11.93
2019-01-11T13:48:22.264Z,11.40
2019-01-11T13:50:50.356Z,12.30
2019-01-11T13:53:20.139Z,10.43
2019-01-11T13:55:48.690Z,9.37
2019-01-11T13:58:22.340Z,14.43
2019-01-11T14:01:10.124Z,9.90
2019-01-11T14:03:37.943Z,14.07
2019-01-11T14:06:06.183Z,13.80
2019-01-11T14:08:34.732Z,11.60
2019-01-11T14:11:03.247Z,11.37
2019-01-11T14:13:31.541Z,10.23
2019-01-11T14:16:00.026Z,9.47
2019-01-11T14:18:28.390Z,10.70
2019-01-11T14:20:56.719Z,11.57
2019-01-11T14:23:25.200Z,10.13
2019-01-11T14:25:53.552Z,13.53
2019-01-11T14:28:21.876Z,18.03
2019-01-11T14:30:50.247Z,14.97
2019-01-11T14:33:18.522Z,11.10
2019-01-11T14:35:46.827Z,9.97
2019-01-11T14:38:15.275Z,9.60
2019-01-11T14:40:46.361Z,8.13
2019-01-11T14:43:14.731Z,10.73
2019-01-11T14:45:42.990Z,9.83
2019-01-11T14:48:11.519Z,8.07
2019-01-11T14:50:39.723Z,7.90
2019-01-11T14:53:08.124Z,10.13
2019-01-11T14:55:36.479Z,6.43
2019-01-11T14:58:04.867Z,7.60
2019-01-11T15:00:33.427Z,10.37
2019-01-11T15:03:02.534Z,6.00
2019-01-11T15:05:30.432Z,8.17
2019-01-11T15:07:58.237Z,8.40
2019-01-11T15:10:26.050Z,9.27
2019-01-11T15:12:53.931Z,10.90
2019-01-11T15:15:21.669Z,15.23
2019-01-11T15:17:49.604Z,14.13
2019-01-11T15:20:20.669Z,9.30
2019-01-11T15:22:49.051Z,7.40
2019-01-11T15:25:17.348Z,8.27
2019-01-11T15:27:50.939Z,8.30
2019-01-11T15:30:20.195Z,9.57
2019-01-11T15:32:48.813Z,9.37
2019-01-11T15:35:17.597Z,11.60
2019-01-11T15:37:45.901Z,8.53
2019-01-11T15:40:26.702Z,11.13
2019-01-11T15:42:55.388Z,11.70
2019-01-11T15:45:25.743Z,10.43
2019-01-11T15:47:53.632Z,12.73
2019-01-11T15:51:03.216Z,10.43
2019-01-11T15:53:36.660Z,14.40
2019-01-11T15:56:13.704Z,15.47
2019-01-11T15:58:48.926Z,12.10
2019-01-11T16:01:17.178Z,18.30
2019-01-11T16:03:45.964Z,12.67
2019-01-11T16:06:32.352Z,13.03
2019-01-11T16:10:00.379Z,11.20
2019-01-11T16:13:29.271Z,13.93
2019-01-11T16:16:33.142Z,14.73
2019-01-11T16:19:01.665Z,14.27
2019-01-11T16:21:32.166Z,12.60
2019-01-11T16:24:00.547Z,14.97
2019-01-11T16:26:30.697Z,15.53
2019-01-11T16:28:58.925Z,13.63
2019-01-11T16:31:27.707Z,19.17
2019-01-11T16:33:55.985Z,13.97
2019-01-11T16:36:23.848Z,15.30
2019-01-11T16:38:51.837Z,23.13
2019-01-11T16:41:19.707Z,24.43
2019-01-11T16:43:47.659Z,18.70
2019-01-11T16:46:16.734Z,38.17
2019-01-11T16:48:44.558Z,34.87
2019-01-11T16:51:12.749Z,42.43
2019-01-11T16:53:40.915Z,54.80
2019-01-11T16:56:08.795Z,24.83
2019-01-11T16:58:36.670Z,32.90
2019-01-11T17:01:04.810Z,19.20
2019-01-11T17:03:32.570Z,19.53
2019-01-11T17:06:00.328Z,16.67
2019-01-11T17:08:28.164Z,15.77
2019-01-11T17:10:55.972Z,24.57
2019-01-11T17:13:23.765Z,16.47
2019-01-11T17:15:51.570Z,13.77
2019-01-11T17:18:19.724Z,15.80
2019-01-11T17:20:47.449Z,22.47
2019-01-11T17:23:15.278Z,22.90
2019-01-11T17:25:43.031Z,20.47
2019-01-11T17:28:10.842Z,23.73
2019-01-11T17:30:38.694Z,28.63
2019-01-11T17:33:06.466Z,24.03
2019-01-11T17:35:34.276Z,24.33
2019-01-11T17:38:02.119Z,22.90
2019-01-11T17:40:29.928Z,17.87
2019-01-11T17:42:57.715Z,18.47
2019-01-11T17:45:25.544Z,21.97
2019-01-11T17:47:53.405Z,31.17
2019-01-11T17:50:21.211Z,37.00
2019-01-11T17:52:49.063Z,31.40
2019-01-11T17:55:16.915Z,48.37
2019-01-11T17:57:44.741Z,40.77
2019-01-11T18:00:16.126Z,28.37
2019-01-11T18:02:43.991Z,18.63
2019-01-11T18:05:13.785Z,18.40
2019-01-11T18:07:41.708Z,15.53
2019-01-11T18:10:13.944Z,61.00
2019-01-11T18:12:42.376Z,28.20
2019-01-11T18:15:17.229Z,33.63
2019-01-11T18:17:48.154Z,26.80
2019-01-11T18:20:23.225Z,20.30
2019-01-11T18:22:51.175Z,17.87
2019-01-11T18:25:19.104Z,13.93
2019-01-11T18:27:46.949Z,19.87
2019-01-11T18:30:15.468Z,15.97
2019-01-11T18:32:43.348Z,13.67
2019-01-11T18:35:15.565Z,9.67
2019-01-11T18:37:51.292Z,9.23
2019-01-11T18:40:23.584Z,12.43
2019-01-11T18:42:51.463Z,12.23
2019-01-11T18:45:28.718Z,9.73
2019-01-11T18:47:58.713Z,8.10
2019-01-11T18:50:28.261Z,9.63
2019-01-11T18:52:56.134Z,8.50
2019-01-11T18:55:30.277Z,11.93
2019-01-11T18:57:58.063Z,12.97
2019-01-11T19:00:34.821Z,11.83
2019-01-11T19:03:05.107Z,18.03
2019-01-11T19:05:32.971Z,10.97
2019-01-11T19:08:03.512Z,11.67
2019-01-11T19:10:31.343Z,9.20
2019-01-11T19:13:00.997Z,11.07
2019-01-11T19:15:33.318Z,7.00
2019-01-11T19:18:01.873Z,11.20
2019-01-11T19:20:32.506Z,11.37
2019-01-11T19:23:03.364Z,21.37
2019-01-11T19:25:31.269Z,18.37
2019-01-11T19:28:00.900Z,22.30
2019-01-11T19:30:31.058Z,15.67
2019-01-11T19:32:59.138Z,16.20
2019-01-11T19:35:26.999Z,13.83
2019-01-11T19:37:54.954Z,13.47
2019-01-11T19:40:22.881Z,12.33
2019-01-11T19:42:50.831Z,14.50
2019-01-11T19:45:19.117Z,13.77
2019-01-11T19:47:47.392Z,17.07
2019-01-11T19:50:21.636Z,14.93
2019-01-11T19:52:50.354Z,13.47
2019-01-11T19:55:18.844Z,13.53
2019-01-11T19:57:47.067Z,21.13
2019-01-11T20:00:24.591Z,11.20
2019-01-11T20:02:53.377Z,10.67
2019-01-11T20:05:21.684Z,11.33
2019-01-11T20:07:50.408Z,13.33
2019-01-11T20:10:37.926Z,11.67
2019-01-11T20:13:06.949Z,10.13
2019-01-11T20:15:35.207Z,11.83
2019-01-11T20:18:04.334Z,13.30
2019-01-11T20:20:32.709Z,12.13
2019-01-11T20:23:02.387Z,9.07
2019-01-11T20:25:30.870Z,9.33
2019-01-11T20:27:59.083Z,14.90
2019-01-11T20:30:28.102Z,11.33
2019-01-11T20:32:56.269Z,12.13
2019-01-11T20:35:24.950Z,30.73
2019-01-11T20:37:53.326Z,11.17
2019-01-11T20:40:21.656Z,8.43
2019-01-11T20:42:49.833Z,10.73
2019-01-11T20:45:20.186Z,10.63
2019-01-11T20:47:48.704Z,19.83
2019-01-11T20:50:19.879Z,10.17
2019-01-11T20:52:48.214Z,12.40
2019-01-11T20:55:16.444Z,15.80
2019-01-11T20:57:44.698Z,13.03
2019-01-11T21:00:28.869Z,9.60
2019-01-11T21:02:57.184Z,12.30
2019-01-11T21:05:26.508Z,12.10
2019-01-11T21:07:54.837Z,12.63
2019-01-11T21:10:23.135Z,17.37
2019-01-11T21:12:51.418Z,13.30
2019-01-11T21:15:19.819Z,13.30
2019-01-11T21:17:48.225Z,9.83
2019-01-11T21:20:17.752Z,22.63
2019-01-11T21:22:46.441Z,25.77
2019-01-11T21:25:15.861Z,10.80
2019-01-11T21:27:44.170Z,12.37
2019-01-11T21:30:22.161Z,9.60
2019-01-11T21:32:50.459Z,13.53
2019-01-11T21:35:18.709Z,9.00
2019-01-11T21:37:47.112Z,16.40
2019-01-11T21:40:17.027Z,8.60
2019-01-11T21:42:44.976Z,13.47
2019-01-11T21:45:13.122Z,17.27
2019-01-11T21:47:40.945Z,19.53
2019-01-11T21:50:12.857Z,13.53
2019-01-11T21:52:40.627Z,9.40
2019-01-11T21:55:09.198Z,8.27
2019-01-11T21:57:37.164Z,7.97
2019-01-11T22:00:10.074Z,7.73
2019-01-11T22:02:37.958Z,9.97
2019-01-11T22:05:05.894Z,10.47
2019-01-11T22:07:33.788Z,12.20
2019-01-11T22:10:01.903Z,9.07
2019-01-11T22:12:29.818Z,10.53
2019-01-11T22:14:58.008Z,9.17
2019-01-11T22:17:25.857Z,6.57
2019-01-11T22:19:53.714Z,6.30
2019-01-11T22:22:21.544Z,10.17
2019-01-11T22:24:49.524Z,6.10
2019-01-11T22:27:17.316Z,6.30
2019-01-11T22:29:50.395Z,6.13
2019-01-11T22:32:18.411Z,7.47
2019-01-11T22:34:46.278Z,5.50
2019-01-11T22:37:14.109Z,5.70
2019-01-11T22:39:41.906Z,8.07
2019-01-11T22:42:09.714Z,4.90
2019-01-11T22:44:37.533Z,5.20
2019-01-11T22:47:05.437Z,6.53
2019-01-11T22:49:33.297Z,8.43
2019-01-11T22:52:01.063Z,9.57
2019-01-11T22:54:28.908Z,11.20
2019-01-11T22:56:56.704Z,17.27
2019-01-11T22:59:24.572Z,7.00
2019-01-11T23:02:35.671Z,10.70
2019-01-11T23:05:07.263Z,6.13
2019-01-11T23:07:57.974Z,10.03
2019-01-11T23:11:09.705Z,9.17
2019-01-11T23:13:37.472Z,11.30
2019-01-11T23:16:39.447Z,8.37
2019-01-11T23:19:26.701Z,6.03
2019-01-11T23:21:54.546Z,7.57
2019-01-11T23:24:22.311Z,7.67
2019-01-11T23:26:50.290Z,8.07
2019-01-11T23:29:18.093Z,11.97
2019-01-11T23:31:45.918Z,9.30
2019-01-11T23:34:13.757Z,9.20
2019-01-11T23:36:51.777Z,10.80
2019-01-11T23:39:19.560Z,10.07
2019-01-11T23:41:47.355Z,10.40
2019-01-11T23:44:15.274Z,12.90
2019-01-11T23:46:43.099Z,12.23
2019-01-11T23:49:10.960Z,8.27
2019-01-11T23:51:38.795Z,10.30
2019-01-11T23:54:06.623Z,8.47
2019-01-11T23:56:34.542Z,7.73
2019-01-11T23:59:02.321Z,6.97
